Time;durP1;ratioP1;P1;durP2;ratioP2;P2;SDS_P1;SDS_P2;PMS_P1;PMS_P2;Temp;Humidity;BMP_temperature;BMP_pressure;BME280_temperature;BME280_humidity;BME280_pressure;Samples;Min_cycle;Max_cycle;Signal;HPM_P1;HPM_P2
2021/11/23 00:00:23;;;;;;;;;;;;;;;;;;;;;
2021/11/23 00:02:49;;;;;;;;;79.75;65.50;;;;;;;;6438709;22;35537;-82
2021/11/23 00:05:17;;;;;;;;;81.75;65.75;;;;;;;;6448050;22;8833;-82
2021/11/23 00:07:45;;;;;;;;;74.00;60.00;;;;;;;;6419919;22;8738;-82
2021/11/23 00:10:10;;;;;;;;;78.25;63.75;;;;;;;;6448676;22;8746;-82
2021/11/23 00:12:38;;;;;;;;;74.25;62.25;;;;;;;;6419604;22;8806;-82
2021/11/23 00:15:11;;;;;;;;;85.50;67.00;;;;;;;;6448516;22;8738;-82
2021/11/23 00:17:37;;;;;;;;;77.75;63.25;;;;;;;;6449327;22;8741;-82
2021/11/23 00:20:03;;;;;;;;;77.00;62.00;;;;;;;;6418712;22;8812;-82
2021/11/23 00:22:31;;;;;;;;;87.50;69.00;;;;;;;;6419453;22;8731;-82
2021/11/23 00:24:56;;;;;;;;;86.75;69.25;;;;;;;;6448182;22;8738;-82
2021/11/23 00:27:22;;;;;;;;;79.25;64.75;;;;;;;;6449315;22;8769;-82
2021/11/23 00:29:47;;;;;;;;;79.50;64.00;;;;;;;;6449017;22;8781;-82
2021/11/23 00:32:13;;;;;;;;;74.50;59.00;;;;;;;;6448198;22;8761;-82
2021/11/23 00:34:38;;;;;;;;;84.50;67.75;;;;;;;;6418977;22;8762;-82
2021/11/23 00:37:07;;;;;;;;;77.00;62.00;;;;;;;;6419119;22;8754;-82
2021/11/23 00:39:35;;;;;;;;;79.25;65.50;;;;;;;;6448219;22;8711;-81
2021/11/23 00:42:00;;;;;;;;;70.75;58.25;;;;;;;;6448910;22;8769;-82
2021/11/23 00:44:28;;;;;;;;;74.67;61.33;;;;;;;;6448708;22;8750;-81
2021/11/23 00:46:54;;;;;;;;;84.00;66.00;;;;;;;;6448425;22;11572;-81
2021/11/23 00:49:21;;;;;;;;;80.00;61.67;;;;;;;;6448749;22;8782;-82
2021/11/23 00:51:47;;;;;;;;;78.75;62.50;;;;;;;;6419237;22;8804;-82
2021/11/23 00:54:12;;;;;;;;;66.25;56.25;;;;;;;;6448683;22;8739;-82
2021/11/23 00:56:37;;;;;;;;;83.00;65.75;;;;;;;;6419794;22;8747;-82
2021/11/23 00:59:03;;;;;;;;;82.67;65.33;;;;;;;;6447947;22;8794;-82
2021/11/23 01:01:29;;;;;;;;;82.75;65.75;;;;;;;;6448998;22;9706;-82
2021/11/23 01:03:54;;;;;;;;;77.00;63.50;;;;;;;;6448603;22;8734;-83
2021/11/23 01:06:20;;;;;;;;;78.33;61.67;;;;;;;;6419013;22;8753;-82
2021/11/23 01:08:45;;;;;;;;;68.67;57.67;;;;;;;;6448670;22;11505;-82
2021/11/23 01:11:12;;;;;;;;;84.50;66.75;;;;;;;;6448275;22;10946;-82
2021/11/23 01:13:38;;;;;;;;;82.25;67.00;;;;;;;;6448779;22;8773;-82
2021/11/23 01:16:04;;;;;;;;;68.75;54.00;;;;;;;;6448121;22;8714;-82
2021/11/23 01:18:32;;;;;;;;;70.75;57.00;;;;;;;;6448779;22;8730;-82
2021/11/23 01:20:57;;;;;;;;;75.25;61.00;;;;;;;;6447391;22;8698;-82
2021/11/23 01:23:23;;;;;;;;;73.50;61.50;;;;;;;;6449126;22;9510;-82
2021/11/23 01:25:50;;;;;;;;;79.00;63.75;;;;;;;;6448668;22;8790;-82
2021/11/23 01:28:52;;;;;;;;;;;;;;;;;;;;;
2021/11/23 01:31:27;;;;;;;;;77.67;62.67;;;;;;;;6442535;22;36022;-81
2021/11/23 01:33:53;;;;;;;;;78.50;63.25;;;;;;;;6448203;22;8726;-81
2021/11/23 01:36:28;;;;;;;;;67.75;54.50;;;;;;;;6448191;22;8840;-82
2021/11/23 01:39:09;;;;;;;;;;;;;;;;;;;;;
2021/11/23 01:42:05;;;;;;;;;66.50;53.00;;;;;;;;6447274;22;35987;-82
2021/11/23 01:45:04;;;;;;;;;71.25;60.00;;;;;;;;6388543;22;8757;-81
2021/11/23 01:47:37;;;;;;;;;55.75;47.00;;;;;;;;6387003;22;8729;-81
2021/11/23 01:50:24;;;;;;;;;;;;;;;;;;;;;
2021/11/23 01:53:32;;;;;;;;;;;;;;;;;;;;;
2021/11/23 01:56:10;;;;;;;;;78.75;65.25;;;;;;;;6414148;22;37038;-82
2021/11/23 01:58:48;;;;;;;;;;;;;;;;;;;;;
2021/11/23 02:01:21;;;;;;;;;79.75;64.50;;;;;;;;6413924;22;36297;-81
2021/11/23 02:04:04;;;;;;;;;84.00;67.75;;;;;;;;6387157;22;8727;-81
2021/11/23 02:09:35;;;;;;;;;76.75;61.50;;;;;;;;6415812;22;8814;-81
2021/11/23 02:12:21;;;;;;;;;80.50;63.25;;;;;;;;6386589;22;8749;-81
2021/11/23 02:18:14;;;;;;;;;80.00;65.50;;;;;;;;6414946;22;8737;-80
2021/11/23 02:20:54;;;;;;;;;62.33;52.33;;;;;;;;6415479;22;9662;-80
2021/11/23 02:24:01;;;;;;;;;;;;;;;;;;;;;
2021/11/23 02:26:35;;;;;;;;;58.50;49.00;;;;;;;;6414108;22;37367;-80
2021/11/23 02:29:01;;;;;;;;;63.00;53.33;;;;;;;;6386134;22;8753;-79
2021/11/23 02:31:26;;;;;;;;;63.75;50.25;;;;;;;;6386166;22;10031;-79
2021/11/23 02:33:51;;;;;;;;;73.25;58.50;;;;;;;;6415237;22;8781;-79
2021/11/23 02:36:20;;;;;;;;;82.67;66.67;;;;;;;;6385937;22;8764;-79
2021/11/23 02:41:35;;;;;;;;;76.75;64.00;;;;;;;;6402707;22;8804;-80
2021/11/23 02:44:41;;;;;;;;;79.25;63.25;;;;;;;;6386315;22;8760;-80
2021/11/23 02:47:22;;;;;;;;;78.00;62.50;;;;;;;;6413703;22;9979;-80
2021/11/23 02:49:52;;;;;;;;;93.00;74.50;;;;;;;;6414783;22;8748;-80
2021/11/23 02:52:23;;;;;;;;;64.67;55.00;;;;;;;;6414816;22;8767;-80
2021/11/23 03:37:13;;;;;;;;;;;;;;;;;;;;;
2021/11/23 03:52:37;;;;;;;;;;;;;;;;;;;;;
2021/11/23 03:55:36;;;;;;;;;;;;;;;;;;;;;
2021/11/23 03:58:04;;;;;;;;;175.50;173.75;;;;;;;;6223414;23;36859;-80
2021/11/23 04:00:45;;;;;;;;;;;;;;;;;;;;;
2021/11/23 04:03:29;;;;;;;;;;;;;;;;;;;;;
2021/11/23 04:06:06;;;;;;;;;82.75;68.00;;;;;;;;6364148;22;35872;-80
2021/11/23 04:08:41;;;;;;;;;152.00;151.20;;;;;;;;6354843;22;12338;-80
2021/11/23 04:14:25;;;;;;;;;;;;;;;;;;;;;
2021/11/23 04:17:00;;;;;;;;;223.00;221.17;;;;;;;;6414528;22;35762;-80
2021/11/23 04:19:43;;;;;;;;;;;;;;;;;;;;;
2021/11/23 04:22:42;;;;;;;;;;;;;;;;;;;;;
2021/11/23 04:25:08;;;;;;;;;155.40;153.00;;;;;;;;6407267;22;8744;-80
2021/11/23 04:31:00;;;;;;;;;;;;;;;;;;;;;
2021/11/23 04:33:51;;;;;;;;;277.00;275.83;;;;;;;;6414338;22;35995;-81
2021/11/23 04:36:37;;;;;;;;;157.17;154.50;;;;;;;;6386888;22;8760;-80
2021/11/23 04:39:03;;;;;;;;;281.50;276.00;;;;;;;;6385501;22;8855;-80
2021/11/23 04:41:30;;;;;;;;;264.86;260.00;;;;;;;;6387109;22;9508;-80
2021/11/23 04:44:03;;;;;;;;;274.33;271.33;;;;;;;;6386141;22;8768;-80
2021/11/23 04:46:31;;;;;;;;;153.33;152.33;;;;;;;;6386789;22;8841;-80
2021/11/23 04:59:01;;;;;;;;;;;;;;;;;;;;;
2021/11/23 05:01:51;;;;;;;;;;;;;;;;;;;;;
2021/11/23 05:04:20;;;;;;;;;221.17;221.00;;;;;;;;6413803;22;36116;-80
2021/11/23 05:06:47;;;;;;;;;180.40;177.00;;;;;;;;6386575;22;8800;-80
2021/11/23 05:09:28;;;;;;;;;;;;;;;;;;;;;
2021/11/23 05:11:53;;;;;;;;;160.60;160.60;;;;;;;;6414507;22;36720;-79
2021/11/23 05:18:06;;;;;;;;;;;;;;;;;;;;;
2021/11/23 05:21:11;;;;;;;;;;;;;;;;;;;;;
2021/11/23 05:27:43;;;;;;;;;198.60;195.40;;;;;;;;6193850;23;8772;-81
2021/11/23 05:34:05;;;;;;;;;155.40;153.60;;;;;;;;6106063;23;8756;-80
2021/11/23 05:43:19;;;;;;;;;105.50;96.00;;;;;;;;6153228;22;8896;-80
2021/11/23 05:46:14;;;;;;;;;;;;;;;;;;;;;
2021/11/23 05:48:47;;;;;;;;;201.00;199.60;;;;;;;;6248786;22;35873;-81
2021/11/23 05:54:41;;;;;;;;;183.00;182.33;;;;;;;;6182590;22;8893;-80
2021/11/23 05:57:49;;;;;;;;;199.20;196.80;;;;;;;;6253857;22;8791;-80
2021/11/23 06:00:17;;;;;;;;;173.17;169.17;;;;;;;;6193699;23;8776;-79
2021/11/23 06:02:52;;;;;;;;;131.20;130.60;;;;;;;;6246144;22;8723;-79
2021/11/23 06:05:27;;;;;;;;;183.67;178.67;;;;;;;;6380540;22;8747;-79
2021/11/23 06:07:58;;;;;;;;;203.50;197.83;;;;;;;;6383067;22;8781;-80
2021/11/23 06:10:23;;;;;;;;;206.67;200.83;;;;;;;;6383404;22;8714;-79
2021/11/23 06:12:49;;;;;;;;;201.40;199.80;;;;;;;;6383680;22;8823;-79
2021/11/23 06:15:18;;;;;;;;;187.17;184.67;;;;;;;;6408249;22;8780;-79
2021/11/23 06:17:49;;;;;;;;;178.83;178.00;;;;;;;;6415367;22;8756;-79
2021/11/23 06:20:24;;;;;;;;;146.17;142.17;;;;;;;;6414500;22;8769;-79
2021/11/23 06:22:57;;;;;;;;;176.50;173.50;;;;;;;;6386294;22;8740;-79
2021/11/23 06:25:25;;;;;;;;;177.50;174.00;;;;;;;;6415446;22;8748;-81
2021/11/23 06:27:51;;;;;;;;;178.50;177.50;;;;;;;;6386053;22;8745;-80
2021/11/23 06:30:17;;;;;;;;;156.00;153.33;;;;;;;;6385508;22;8837;-79
2021/11/23 06:32:44;;;;;;;;;142.00;141.20;;;;;;;;6415530;22;8768;-79
2021/11/23 06:35:10;;;;;;;;;94.60;80.80;;;;;;;;6387066;22;8769;-80
2021/11/23 06:38:06;;;;;;;;;148.25;144.50;;;;;;;;6387747;22;9337;-80
2021/11/23 06:40:29;;;;;;;;;88.00;73.50;;;;;;;;6413844;22;8769;-79
2021/11/23 06:43:05;;;;;;;;;157.60;155.40;;;;;;;;6388561;22;8819;-78
2021/11/23 06:45:41;;;;;;;;;;;;;;;;;;;;;
2021/11/23 06:48:11;;;;;;;;;184.00;182.83;;;;;;;;6414583;22;36641;-80
2021/11/23 06:50:37;;;;;;;;;139.17;135.17;;;;;;;;6387265;22;8745;-79
2021/11/23 06:53:47;;;;;;;;;136.20;133.00;;;;;;;;6416094;22;8737;-79
2021/11/23 06:55:54;;;;;;;;;135.80;130.80;;;;;;;;6402782;22;8749;-79
2021/11/23 06:58:25;;;;;;;;;171.00;170.50;;;;;;;;6416384;22;9477;-80
2021/11/23 07:00:50;;;;;;;;;142.80;142.20;;;;;;;;6415745;22;8741;-79
2021/11/23 07:03:23;;;;;;;;;147.20;142.80;;;;;;;;6416254;22;8849;-80
2021/11/23 07:05:51;;;;;;;;;133.60;132.80;;;;;;;;6416370;22;8856;-80
2021/11/23 07:08:17;;;;;;;;;167.33;166.00;;;;;;;;6387160;22;8829;-80
2021/11/23 07:10:42;;;;;;;;;159.50;157.67;;;;;;;;6416732;22;8721;-81
2021/11/23 07:13:08;;;;;;;;;144.00;141.00;;;;;;;;6416375;22;8736;-81
2021/11/23 07:15:36;;;;;;;;;129.20;127.60;;;;;;;;6387542;22;8798;-82
2021/11/23 07:18:01;;;;;;;;;156.20;150.60;;;;;;;;6415959;22;8757;-81
2021/11/23 07:20:26;;;;;;;;;151.60;147.00;;;;;;;;6387090;22;8776;-81
2021/11/23 07:22:52;;;;;;;;;160.00;159.40;;;;;;;;6387576;22;8842;-81
2021/11/23 07:25:17;;;;;;;;;145.40;145.40;;;;;;;;6387697;22;8783;-81
2021/11/23 07:27:43;;;;;;;;;160.40;158.20;;;;;;;;6416939;22;8943;-81
2021/11/23 07:30:08;;;;;;;;;149.80;148.00;;;;;;;;6416150;22;8760;-81
2021/11/23 07:32:35;;;;;;;;;152.80;150.00;;;;;;;;6416232;22;8844;-81
2021/11/23 07:35:01;;;;;;;;;176.83;176.67;;;;;;;;6415689;22;8761;-80
2021/11/23 07:37:29;;;;;;;;;154.00;151.40;;;;;;;;6416341;22;8737;-81
2021/11/23 07:39:54;;;;;;;;;173.00;173.00;;;;;;;;6417681;22;8715;-81
2021/11/23 07:42:20;;;;;;;;;177.00;175.00;;;;;;;;6416399;22;9496;-81
2021/11/23 07:44:45;;;;;;;;;193.40;191.80;;;;;;;;6416125;22;8785;-81
2021/11/23 07:47:10;;;;;;;;;198.80;195.20;;;;;;;;6415645;22;8832;-79
2021/11/23 07:49:36;;;;;;;;;207.00;205.60;;;;;;;;6415856;22;8733;-79
2021/11/23 07:52:02;;;;;;;;;221.60;217.60;;;;;;;;6415922;22;8729;-79
2021/11/23 07:54:27;;;;;;;;;226.80;225.00;;;;;;;;6416244;22;8753;-80
2021/11/23 07:56:53;;;;;;;;;202.33;201.67;;;;;;;;6387194;22;8745;-79
2021/11/23 07:59:18;;;;;;;;;224.00;223.40;;;;;;;;6416108;22;8788;-79
2021/11/23 08:01:44;;;;;;;;;219.00;219.00;;;;;;;;6387415;22;8859;-79
2021/11/23 08:04:09;;;;;;;;;222.80;221.60;;;;;;;;6386750;22;9643;-79
2021/11/23 08:06:35;;;;;;;;;249.00;248.80;;;;;;;;6416247;22;11627;-80
2021/11/23 08:09:00;;;;;;;;;227.50;227.25;;;;;;;;6416021;22;8780;-80
2021/11/23 08:11:26;;;;;;;;;206.50;204.25;;;;;;;;6416652;22;8782;-80
2021/11/23 08:13:51;;;;;;;;;164.75;162.25;;;;;;;;6415355;22;8761;-80
2021/11/23 08:16:16;;;;;;;;;159.25;158.25;;;;;;;;6416200;22;8875;-80
2021/11/23 08:18:42;;;;;;;;;135.33;135.00;;;;;;;;6416437;22;8776;-80
2021/11/23 08:21:08;;;;;;;;;166.25;166.25;;;;;;;;6415169;22;8765;-80
2021/11/23 08:23:33;;;;;;;;;116.25;111.25;;;;;;;;6416090;22;8939;-80
2021/11/23 08:25:58;;;;;;;;;81.67;68.00;;;;;;;;6416190;22;8745;-80
2021/11/23 08:28:26;;;;;;;;;82.00;68.00;;;;;;;;6416539;22;8807;-80
2021/11/23 08:30:51;;;;;;;;;43.50;41.50;;;;;;;;6387216;22;8760;-80
2021/11/23 08:33:17;;;;;;;;;40.00;39.33;;;;;;;;6387375;22;8744;-80
2021/11/23 08:35:42;;;;;;;;;56.00;46.33;;;;;;;;6416045;22;8768;-79
2021/11/23 08:38:08;;;;;;;;;51.00;42.00;;;;;;;;6416376;22;8736;-80
2021/11/23 08:40:33;;;;;;;;;43.67;41.33;;;;;;;;6416776;22;8788;-80
2021/11/23 08:42:59;;;;;;;;;6.00;3.00;;;;;;;;6416030;22;8733;-80
2021/11/23 08:45:25;;;;;;;;;62.00;51.00;;;;;;;;6416389;22;8805;-80
2021/11/23 08:47:50;;;;;;;;;21.75;15.50;;;;;;;;6416446;22;9440;-79
2021/11/23 08:50:16;;;;;;;;;31.00;30.50;;;;;;;;6415975;22;9009;-80
2021/11/23 08:52:41;;;;;;;;;31.50;29.00;;;;;;;;6416401;22;8744;-80
2021/11/23 08:55:07;;;;;;;;;53.50;47.75;;;;;;;;6416147;22;8772;-80
2021/11/23 08:57:33;;;;;;;;;47.00;42.50;;;;;;;;6415220;22;8844;-80
2021/11/23 09:00:14;;;;;;;;;46.75;42.75;;;;;;;;6415329;22;8910;-80
2021/11/23 09:02:40;;;;;;;;;36.25;34.75;;;;;;;;6387626;22;8749;-80
2021/11/23 09:05:09;;;;;;;;;58.75;50.25;;;;;;;;6415360;22;8729;-80
2021/11/23 09:07:35;;;;;;;;;51.50;45.50;;;;;;;;6416528;22;8737;-80
2021/11/23 09:10:01;;;;;;;;;48.67;43.67;;;;;;;;6415805;22;8859;-80
2021/11/23 09:12:26;;;;;;;;;37.25;36.00;;;;;;;;6416355;22;9093;-80
2021/11/23 09:14:52;;;;;;;;;46.00;43.00;;;;;;;;6386441;22;8753;-80
2021/11/23 09:17:17;;;;;;;;;44.50;38.50;;;;;;;;6416330;22;8763;-81
2021/11/23 09:19:43;;;;;;;;;49.50;45.50;;;;;;;;6386478;22;8857;-81
2021/11/23 09:22:08;;;;;;;;;53.00;46.67;;;;;;;;6415638;22;8848;-81
2021/11/23 09:24:34;;;;;;;;;53.00;46.75;;;;;;;;6415721;22;11483;-81
2021/11/23 09:26:59;;;;;;;;;44.00;41.33;;;;;;;;6386893;22;8749;-81
2021/11/23 09:29:24;;;;;;;;;55.75;49.25;;;;;;;;6416353;22;12214;-81
2021/11/23 09:31:50;;;;;;;;;69.50;58.25;;;;;;;;6386939;22;9580;-81
2021/11/23 09:34:15;;;;;;;;;70.25;59.00;;;;;;;;6415539;22;8765;-81
2021/11/23 09:36:42;;;;;;;;;79.75;65.25;;;;;;;;6415895;22;11510;-83
2021/11/23 09:39:10;;;;;;;;;101.40;95.80;;;;;;;;6415656;22;8729;-81
2021/11/23 09:41:37;;;;;;;;;129.20;129.20;;;;;;;;6387136;22;8761;-81
2021/11/23 09:44:03;;;;;;;;;144.60;143.00;;;;;;;;6386457;22;8741;-81
2021/11/23 09:46:31;;;;;;;;;126.80;126.00;;;;;;;;6416037;22;9630;-81
2021/11/23 09:52:00;;;;;;;;;122.60;122.40;;;;;;;;6415327;22;8713;-81
2021/11/23 09:54:48;;;;;;;;;109.00;106.00;;;;;;;;6386980;22;8818;-81
2021/11/23 10:00:23;;;;;;;;;96.80;87.00;;;;;;;;6414754;22;8725;-81
2021/11/23 10:03:10;;;;;;;;;85.50;73.50;;;;;;;;6387141;22;8681;-82
2021/11/23 10:05:38;;;;;;;;;90.00;78.25;;;;;;;;6371111;22;11486;-81
2021/11/23 10:08:08;;;;;;;;;76.00;62.25;;;;;;;;6386304;22;11583;-80
2021/11/23 10:10:53;;;;;;;;;64.25;53.25;;;;;;;;6416042;22;8778;-81
2021/11/23 10:13:20;;;;;;;;;52.50;47.00;;;;;;;;6416719;22;8773;-81
2021/11/23 10:15:53;;;;;;;;;6.75;5.50;;;;;;;;6387784;22;8763;-81
2021/11/23 10:18:26;;;;;;;;;3.20;1.80;;;;;;;;6387480;22;8747;-81
2021/11/23 10:20:55;;;;;;;;;1.40;1.40;;;;;;;;6387700;22;8761;-80
2021/11/23 10:23:35;;;;;;;;;;;;;;;;;;;;;
2021/11/23 10:26:04;;;;;;;;;2.00;2.00;;;;;;;;6415174;22;36786;-81
2021/11/23 10:28:30;;;;;;;;;13.00;13.00;;;;;;;;6388478;22;8725;-81
2021/11/23 10:30:59;;;;;;;;;25.25;23.25;;;;;;;;6416515;22;9611;-81
2021/11/23 10:33:27;;;;;;;;;37.50;33.50;;;;;;;;6388078;22;9134;-82
2021/11/23 10:36:09;;;;;;;;;53.25;46.25;;;;;;;;6387306;22;8753;-82
2021/11/23 10:38:38;;;;;;;;;45.25;42.00;;;;;;;;6417049;22;8721;-82
2021/11/23 10:41:07;;;;;;;;;40.00;37.75;;;;;;;;6387530;22;8724;-82
2021/11/23 10:43:46;;;;;;;;;64.25;53.25;;;;;;;;6417097;22;8705;-81
2021/11/23 10:46:57;;;;;;;;;;;;;;;;;;;;;
2021/11/23 10:49:58;;;;;;;;;;;;;;;;;;;;;
2021/11/23 10:52:57;;;;;;;;;;;;;;;;;;;;;
2021/11/23 11:02:06;;;;;;;;;53.75;46.25;;;;;;;;6318611;22;8749;-82
2021/11/23 11:04:43;;;;;;;;;;;;;;;;;;;;;
2021/11/23 11:07:36;;;;;;;;;;;;;;;;;;;;;
2021/11/23 11:10:25;;;;;;;;;;;;;;;;;;;;;
2021/11/23 11:16:43;;;;;;;;;54.75;48.00;;;;;;;;6365593;22;8780;-82
2021/11/23 11:19:46;;;;;;;;;35.25;35.25;;;;;;;;6381154;22;8739;-81
2021/11/23 11:22:29;;;;;;;;;37.75;37.25;;;;;;;;6381338;22;8758;-82
2021/11/23 11:27:52;;;;;;;;;33.50;31.50;;;;;;;;6384254;22;8821;-81
2021/11/23 11:31:07;;;;;;;;;42.50;38.25;;;;;;;;6381521;22;8738;-82
2021/11/23 11:33:47;;;;;;;;;;;;;;;;;;;;;
2021/11/23 11:36:42;;;;;;;;;;;;;;;;;;;;;
2021/11/23 11:39:47;;;;;;;;;45.50;42.00;;;;;;;;6382647;22;37280;-81
2021/11/23 11:42:32;;;;;;;;;;;;;;;;;;;;;
2021/11/23 11:45:13;;;;;;;;;56.00;48.50;;;;;;;;6382687;22;36123;-81
2021/11/23 11:47:41;;;;;;;;;52.00;45.75;;;;;;;;6382305;22;8687;-81
2021/11/23 11:50:09;;;;;;;;;44.75;40.00;;;;;;;;6383581;22;9544;-81
2021/11/23 11:52:56;;;;;;;;;57.75;49.25;;;;;;;;6384564;22;8731;-81
2021/11/23 11:55:23;;;;;;;;;41.75;39.00;;;;;;;;6364849;22;8735;-81
2021/11/23 11:57:50;;;;;;;;;36.25;34.75;;;;;;;;6384448;22;8726;-81
2021/11/23 12:00:35;;;;;;;;;37.50;37.00;;;;;;;;6383785;22;8754;-80
2021/11/23 12:03:15;;;;;;;;;52.75;44.75;;;;;;;;6384114;22;9634;-81
2021/11/23 12:06:06;;;;;;;;;58.25;50.00;;;;;;;;6383525;22;8738;-81
2021/11/23 12:08:39;;;;;;;;;67.00;56.75;;;;;;;;6384807;22;8734;-81
2021/11/23 12:11:06;;;;;;;;;57.00;49.00;;;;;;;;6384183;22;8731;-81
2021/11/23 12:13:40;;;;;;;;;52.75;45.25;;;;;;;;6382309;22;8734;-80
2021/11/23 12:16:12;;;;;;;;;38.00;36.75;;;;;;;;6383612;22;8734;-81
2021/11/23 12:18:52;;;;;;;;;54.00;46.00;;;;;;;;6383516;22;8711;-81
2021/11/23 12:21:18;;;;;;;;;41.25;39.25;;;;;;;;6380601;22;8726;-80
2021/11/23 12:23:57;;;;;;;;;50.75;42.75;;;;;;;;6383932;22;10206;-82
2021/11/23 12:26:24;;;;;;;;;46.75;41.50;;;;;;;;6382136;22;8779;-81
2021/11/23 12:28:54;;;;;;;;;54.75;47.00;;;;;;;;6384252;22;8729;-81
2021/11/23 12:31:23;;;;;;;;;57.00;48.75;;;;;;;;6382272;22;8883;-81
2021/11/23 12:33:49;;;;;;;;;39.25;38.00;;;;;;;;6383431;22;8851;-81
